sensor_id;sensor_type;location;lat;lon;timestamp;temperature;humidity
53880;DHT22;39791;53.184;5.486;2023-09-19T00:00:37;20.50;99.90
53880;DHT22;39791;53.184;5.486;2023-09-19T00:03:03;20.50;99.90
53880;DHT22;39791;53.184;5.486;2023-09-19T00:05:30;20.50;99.90
53880;DHT22;39791;53.184;5.486;2023-09-19T00:08:00;20.50;1.00
53880;DHT22;39791;53.184;5.486;2023-09-19T00:10:27;20.60;1.00
53880;DHT22;39791;53.184;5.486;2023-09-19T00:12:57;20.50;1.00
53880;DHT22;39791;53.184;5.486;2023-09-19T00:15:24;20.40;99.90
53880;DHT22;39791;53.184;5.486;2023-09-19T00:17:51;20.40;99.90
53880;DHT22;39791;53.184;5.486;2023-09-19T00:20:18;20.40;91.20
53880;DHT22;39791;53.184;5.486;2023-09-19T00:22:44;20.40;1.00
53880;DHT22;39791;53.184;5.486;2023-09-19T00:25:10;20.40;1.00
53880;DHT22;39791;53.184;5.486;2023-09-19T00:27:38;20.40;1.00
53880;DHT22;39791;53.184;5.486;2023-09-19T00:30:11;20.30;99.90
53880;DHT22;39791;53.184;5.486;2023-09-19T00:32:42;20.40;99.90
53880;DHT22;39791;53.184;5.486;2023-09-19T00:35:08;20.30;99.90
53880;DHT22;39791;53.184;5.486;2023-09-19T00:37:37;20.30;99.90
53880;DHT22;39791;53.184;5.486;2023-09-19T00:40:07;20.30;99.90
53880;DHT22;39791;53.184;5.486;2023-09-19T00:42:40;20.30;99.90
53880;DHT22;39791;53.184;5.486;2023-09-19T00:45:10;20.30;99.90
53880;DHT22;39791;53.184;5.486;2023-09-19T00:47:45;20.40;99.90
53880;DHT22;39791;53.184;5.486;2023-09-19T00:50:13;20.40;99.90
53880;DHT22;39791;53.184;5.486;2023-09-19T00:52:40;20.40;99.90
53880;DHT22;39791;53.184;5.486;2023-09-19T00:55:09;20.40;99.90
53880;DHT22;39791;53.184;5.486;2023-09-19T00:57:36;20.30;99.90
53880;DHT22;39791;53.184;5.486;2023-09-19T01:00:06;20.40;99.90
53880;DHT22;39791;53.184;5.486;2023-09-19T01:02:34;20.30;99.90
53880;DHT22;39791;53.184;5.486;2023-09-19T01:05:00;20.30;99.90
53880;DHT22;39791;53.184;5.486;2023-09-19T01:07:30;20.40;99.90
53880;DHT22;39791;53.184;5.486;2023-09-19T01:09:57;20.40;99.90
53880;DHT22;39791;53.184;5.486;2023-09-19T01:13:07;20.40;99.90
53880;DHT22;39791;53.184;5.486;2023-09-19T01:21:11;20.40;99.90
53880;DHT22;39791;53.184;5.486;2023-09-19T01:24:10;20.40;99.90
53880;DHT22;39791;53.184;5.486;2023-09-19T01:29:39;20.40;99.90
53880;DHT22;39791;53.184;5.486;2023-09-19T01:32:08;20.40;1.00
53880;DHT22;39791;53.184;5.486;2023-09-19T01:37:12;20.40;1.00
53880;DHT22;39791;53.184;5.486;2023-09-19T01:39:39;20.40;1.00
53880;DHT22;39791;53.184;5.486;2023-09-19T01:47:46;20.40;1.00
53880;DHT22;39791;53.184;5.486;2023-09-19T01:53:15;20.30;1.00
53880;DHT22;39791;53.184;5.486;2023-09-19T01:55:48;20.40;99.90
53880;DHT22;39791;53.184;5.486;2023-09-19T01:58:35;20.30;99.90
53880;DHT22;39791;53.184;5.486;2023-09-19T02:01:04;20.30;99.90
53880;DHT22;39791;53.184;5.486;2023-09-19T02:03:31;20.20;99.90
53880;DHT22;39791;53.184;5.486;2023-09-19T02:05:59;20.40;99.90
53880;DHT22;39791;53.184;5.486;2023-09-19T02:08:24;20.40;1.00
53880;DHT22;39791;53.184;5.486;2023-09-19T02:10:51;20.30;1.00
53880;DHT22;39791;53.184;5.486;2023-09-19T02:13:19;20.80;1.00
53880;DHT22;39791;53.184;5.486;2023-09-19T02:15:45;20.30;1.00
53880;DHT22;39791;53.184;5.486;2023-09-19T02:18:14;20.40;1.00
53880;DHT22;39791;53.184;5.486;2023-09-19T02:20:40;20.40;91.90
53880;DHT22;39791;53.184;5.486;2023-09-19T02:23:06;20.40;70.10
53880;DHT22;39791;53.184;5.486;2023-09-19T02:25:33;20.30;1.00
53880;DHT22;39791;53.184;5.486;2023-09-19T02:27:59;20.40;99.90
53880;DHT22;39791;53.184;5.486;2023-09-19T02:30:26;20.30;99.90
53880;DHT22;39791;53.184;5.486;2023-09-19T02:32:52;20.50;99.90
53880;DHT22;39791;53.184;5.486;2023-09-19T02:35:17;20.20;99.90
53880;DHT22;39791;53.184;5.486;2023-09-19T02:37:47;20.20;99.90
53880;DHT22;39791;53.184;5.486;2023-09-19T02:40:12;20.20;99.90
53880;DHT22;39791;53.184;5.486;2023-09-19T02:42:47;20.20;1.00
53880;DHT22;39791;53.184;5.486;2023-09-19T02:45:16;20.20;99.90
53880;DHT22;39791;53.184;5.486;2023-09-19T02:47:43;20.20;99.90
53880;DHT22;39791;53.184;5.486;2023-09-19T02:50:09;20.20;99.90
53880;DHT22;39791;53.184;5.486;2023-09-19T02:52:38;20.10;99.90
53880;DHT22;39791;53.184;5.486;2023-09-19T02:55:04;20.10;99.90
53880;DHT22;39791;53.184;5.486;2023-09-19T02:57:32;20.10;99.90
53880;DHT22;39791;53.184;5.486;2023-09-19T02:59:58;20.10;1.00
53880;DHT22;39791;53.184;5.486;2023-09-19T03:02:24;20.10;1.00
53880;DHT22;39791;53.184;5.486;2023-09-19T03:04:50;20.00;1.00
53880;DHT22;39791;53.184;5.486;2023-09-19T03:07:16;20.00;1.00
53880;DHT22;39791;53.184;5.486;2023-09-19T03:09:42;20.00;1.00
53880;DHT22;39791;53.184;5.486;2023-09-19T03:12:08;19.90;1.00
53880;DHT22;39791;53.184;5.486;2023-09-19T03:14:34;19.90;1.00
53880;DHT22;39791;53.184;5.486;2023-09-19T03:17:01;19.90;1.00
53880;DHT22;39791;53.184;5.486;2023-09-19T03:19:30;20.00;30.20
53880;DHT22;39791;53.184;5.486;2023-09-19T03:21:55;20.00;82.80
53880;DHT22;39791;53.184;5.486;2023-09-19T03:24:23;20.00;99.90
53880;DHT22;39791;53.184;5.486;2023-09-19T03:26:48;20.00;99.90
53880;DHT22;39791;53.184;5.486;2023-09-19T03:29:14;19.90;99.90
53880;DHT22;39791;53.184;5.486;2023-09-19T03:31:41;20.00;99.90
53880;DHT22;39791;53.184;5.486;2023-09-19T03:34:06;20.00;99.90
53880;DHT22;39791;53.184;5.486;2023-09-19T03:36:32;20.30;99.90
53880;DHT22;39791;53.184;5.486;2023-09-19T03:38:57;19.90;99.90
53880;DHT22;39791;53.184;5.486;2023-09-19T03:41:23;20.00;99.90
53880;DHT22;39791;53.184;5.486;2023-09-19T03:43:48;20.10;99.90
53880;DHT22;39791;53.184;5.486;2023-09-19T03:46:14;20.10;99.90
53880;DHT22;39791;53.184;5.486;2023-09-19T03:48:40;20.10;99.90
53880;DHT22;39791;53.184;5.486;2023-09-19T03:51:06;20.00;99.90
53880;DHT22;39791;53.184;5.486;2023-09-19T03:53:32;20.00;99.90
53880;DHT22;39791;53.184;5.486;2023-09-19T03:55:57;20.10;99.90
53880;DHT22;39791;53.184;5.486;2023-09-19T03:58:23;20.00;99.90
53880;DHT22;39791;53.184;5.486;2023-09-19T04:00:48;20.00;99.90
53880;DHT22;39791;53.184;5.486;2023-09-19T04:03:15;20.00;99.90
53880;DHT22;39791;53.184;5.486;2023-09-19T04:05:46;20.10;99.90
53880;DHT22;39791;53.184;5.486;2023-09-19T04:08:13;20.10;99.90
53880;DHT22;39791;53.184;5.486;2023-09-19T04:10:41;20.10;57.80
53880;DHT22;39791;53.184;5.486;2023-09-19T04:13:07;20.10;1.00
53880;DHT22;39791;53.184;5.486;2023-09-19T04:15:33;20.20;10.50
53880;DHT22;39791;53.184;5.486;2023-09-19T04:17:58;20.00;81.30
53880;DHT22;39791;53.184;5.486;2023-09-19T04:20:24;20.10;1.00
53880;DHT22;39791;53.184;5.486;2023-09-19T04:22:49;20.20;1.00
53880;DHT22;39791;53.184;5.486;2023-09-19T04:25:15;20.20;1.00
53880;DHT22;39791;53.184;5.486;2023-09-19T04:27:41;20.30;1.00
53880;DHT22;39791;53.184;5.486;2023-09-19T04:30:09;20.20;1.00
53880;DHT22;39791;53.184;5.486;2023-09-19T04:32:38;20.20;1.00
53880;DHT22;39791;53.184;5.486;2023-09-19T04:35:09;20.30;1.00
53880;DHT22;39791;53.184;5.486;2023-09-19T04:37:39;20.20;1.00
53880;DHT22;39791;53.184;5.486;2023-09-19T04:40:09;20.20;1.00
53880;DHT22;39791;53.184;5.486;2023-09-19T04:42:39;20.30;1.00
53880;DHT22;39791;53.184;5.486;2023-09-19T04:45:05;20.20;1.00
53880;DHT22;39791;53.184;5.486;2023-09-19T04:47:31;20.20;1.00
53880;DHT22;39791;53.184;5.486;2023-09-19T04:49:56;20.20;1.00
53880;DHT22;39791;53.184;5.486;2023-09-19T04:52:24;20.20;1.00
53880;DHT22;39791;53.184;5.486;2023-09-19T04:54:50;20.20;17.90
53880;DHT22;39791;53.184;5.486;2023-09-19T04:57:15;20.20;1.00
53880;DHT22;39791;53.184;5.486;2023-09-19T04:59:41;20.20;1.00
53880;DHT22;39791;53.184;5.486;2023-09-19T05:02:07;20.20;1.00
53880;DHT22;39791;53.184;5.486;2023-09-19T05:04:33;20.10;1.00
53880;DHT22;39791;53.184;5.486;2023-09-19T05:06:59;20.20;1.00
53880;DHT22;39791;53.184;5.486;2023-09-19T05:09:26;20.20;1.00
53880;DHT22;39791;53.184;5.486;2023-09-19T05:11:52;20.20;25.40
53880;DHT22;39791;53.184;5.486;2023-09-19T05:14:18;20.10;94.30
53880;DHT22;39791;53.184;5.486;2023-09-19T05:16:46;20.10;99.90
53880;DHT22;39791;53.184;5.486;2023-09-19T05:19:11;20.10;99.90
53880;DHT22;39791;53.184;5.486;2023-09-19T05:21:37;20.20;99.90
53880;DHT22;39791;53.184;5.486;2023-09-19T05:24:05;20.10;99.90
53880;DHT22;39791;53.184;5.486;2023-09-19T05:26:32;20.10;99.90
53880;DHT22;39791;53.184;5.486;2023-09-19T05:28:57;20.10;99.90
53880;DHT22;39791;53.184;5.486;2023-09-19T05:31:23;20.10;99.90
53880;DHT22;39791;53.184;5.486;2023-09-19T05:33:50;20.00;99.90
53880;DHT22;39791;53.184;5.486;2023-09-19T05:36:15;20.20;99.90
53880;DHT22;39791;53.184;5.486;2023-09-19T05:38:41;20.10;99.90
53880;DHT22;39791;53.184;5.486;2023-09-19T05:41:08;20.20;99.90
53880;DHT22;39791;53.184;5.486;2023-09-19T05:43:35;20.20;99.90
53880;DHT22;39791;53.184;5.486;2023-09-19T05:46:03;20.20;27.80
53880;DHT22;39791;53.184;5.486;2023-09-19T05:48:28;20.20;1.00
53880;DHT22;39791;53.184;5.486;2023-09-19T05:50:54;20.20;34.60
53880;DHT22;39791;53.184;5.486;2023-09-19T05:53:19;20.20;69.90
53880;DHT22;39791;53.184;5.486;2023-09-19T05:55:45;20.30;4.10
53880;DHT22;39791;53.184;5.486;2023-09-19T05:58:11;20.30;1.00
53880;DHT22;39791;53.184;5.486;2023-09-19T06:00:39;20.40;1.00
53880;DHT22;39791;53.184;5.486;2023-09-19T06:03:07;20.30;1.00
53880;DHT22;39791;53.184;5.486;2023-09-19T06:05:33;20.30;24.90
53880;DHT22;39791;53.184;5.486;2023-09-19T06:07:59;20.30;66.40
53880;DHT22;39791;53.184;5.486;2023-09-19T06:10:33;20.40;41.60
53880;DHT22;39791;53.184;5.486;2023-09-19T06:13:00;20.40;35.90
53880;DHT22;39791;53.184;5.486;2023-09-19T06:15:29;20.40;1.00
53880;DHT22;39791;53.184;5.486;2023-09-19T06:17:58;20.50;1.00
53880;DHT22;39791;53.184;5.486;2023-09-19T06:20:25;20.60;1.00
53880;DHT22;39791;53.184;5.486;2023-09-19T06:22:52;20.50;1.00
53880;DHT22;39791;53.184;5.486;2023-09-19T06:25:18;20.70;1.00
53880;DHT22;39791;53.184;5.486;2023-09-19T06:27:51;21.30;99.90
53880;DHT22;39791;53.184;5.486;2023-09-19T06:30:22;20.60;99.90
53880;DHT22;39791;53.184;5.486;2023-09-19T06:32:49;20.60;1.00
53880;DHT22;39791;53.184;5.486;2023-09-19T06:35:16;20.60;1.00
53880;DHT22;39791;53.184;5.486;2023-09-19T06:37:42;20.60;1.00
53880;DHT22;39791;53.184;5.486;2023-09-19T06:40:13;20.60;99.90
53880;DHT22;39791;53.184;5.486;2023-09-19T06:42:44;20.60;99.90
53880;DHT22;39791;53.184;5.486;2023-09-19T06:45:11;20.60;1.00
53880;DHT22;39791;53.184;5.486;2023-09-19T06:47:39;20.60;1.00
53880;DHT22;39791;53.184;5.486;2023-09-19T06:50:05;20.60;1.00
53880;DHT22;39791;53.184;5.486;2023-09-19T06:52:34;20.70;99.90
53880;DHT22;39791;53.184;5.486;2023-09-19T06:55:00;20.70;99.90
53880;DHT22;39791;53.184;5.486;2023-09-19T06:57:28;20.60;99.90
53880;DHT22;39791;53.184;5.486;2023-09-19T06:59:56;20.70;1.00
53880;DHT22;39791;53.184;5.486;2023-09-19T07:02:21;20.70;1.00
53880;DHT22;39791;53.184;5.486;2023-09-19T07:04:47;20.80;1.00
53880;DHT22;39791;53.184;5.486;2023-09-19T07:07:12;21.00;1.00
53880;DHT22;39791;53.184;5.486;2023-09-19T07:09:39;20.70;99.90
53880;DHT22;39791;53.184;5.486;2023-09-19T07:12:05;20.70;99.90
53880;DHT22;39791;53.184;5.486;2023-09-19T07:14:31;20.70;99.90
53880;DHT22;39791;53.184;5.486;2023-09-19T07:16:56;20.70;99.90
53880;DHT22;39791;53.184;5.486;2023-09-19T07:19:22;20.60;82.20
53880;DHT22;39791;53.184;5.486;2023-09-19T07:21:47;20.60;84.50
53880;DHT22;39791;53.184;5.486;2023-09-19T07:24:14;20.80;99.90
53880;DHT22;39791;53.184;5.486;2023-09-19T07:26:40;20.80;65.60
53880;DHT22;39791;53.184;5.486;2023-09-19T07:29:05;20.80;92.10
53880;DHT22;39791;53.184;5.486;2023-09-19T07:31:34;20.90;98.90
53880;DHT22;39791;53.184;5.486;2023-09-19T07:33:59;20.90;99.90
53880;DHT22;39791;53.184;5.486;2023-09-19T07:36:25;21.20;99.90
53880;DHT22;39791;53.184;5.486;2023-09-19T07:38:50;21.10;30.80
53880;DHT22;39791;53.184;5.486;2023-09-19T07:41:16;21.20;46.20
53880;DHT22;39791;53.184;5.486;2023-09-19T07:43:42;21.40;15.30
53880;DHT22;39791;53.184;5.486;2023-09-19T07:46:08;21.30;1.00
53880;DHT22;39791;53.184;5.486;2023-09-19T07:48:38;21.30;1.00
53880;DHT22;39791;53.184;5.486;2023-09-19T07:51:08;21.40;1.00
53880;DHT22;39791;53.184;5.486;2023-09-19T07:53:35;21.40;1.00
53880;DHT22;39791;53.184;5.486;2023-09-19T07:56:04;21.40;1.00
53880;DHT22;39791;53.184;5.486;2023-09-19T07:58:30;21.50;1.00
53880;DHT22;39791;53.184;5.486;2023-09-19T08:01:01;21.50;1.00
53880;DHT22;39791;53.184;5.486;2023-09-19T08:03:27;21.60;1.00
53880;DHT22;39791;53.184;5.486;2023-09-19T08:05:52;21.70;1.00
53880;DHT22;39791;53.184;5.486;2023-09-19T08:08:18;21.70;1.00
53880;DHT22;39791;53.184;5.486;2023-09-19T08:10:44;21.60;1.00
53880;DHT22;39791;53.184;5.486;2023-09-19T08:13:14;22.10;1.00
53880;DHT22;39791;53.184;5.486;2023-09-19T08:15:45;21.50;1.00
53880;DHT22;39791;53.184;5.486;2023-09-19T08:18:11;21.50;1.00
53880;DHT22;39791;53.184;5.486;2023-09-19T08:20:37;21.50;1.00
53880;DHT22;39791;53.184;5.486;2023-09-19T08:23:03;21.60;1.00
53880;DHT22;39791;53.184;5.486;2023-09-19T08:25:29;21.80;1.00
53880;DHT22;39791;53.184;5.486;2023-09-19T08:27:55;21.80;1.00
53880;DHT22;39791;53.184;5.486;2023-09-19T08:30:24;21.80;1.00
53880;DHT22;39791;53.184;5.486;2023-09-19T08:33:02;21.80;99.90
53880;DHT22;39791;53.184;5.486;2023-09-19T08:35:30;21.80;99.90
53880;DHT22;39791;53.184;5.486;2023-09-19T08:37:55;21.90;99.90
53880;DHT22;39791;53.184;5.486;2023-09-19T08:40:22;22.10;99.90
53880;DHT22;39791;53.184;5.486;2023-09-19T08:42:49;22.00;1.00
53880;DHT22;39791;53.184;5.486;2023-09-19T08:45:23;21.90;1.00
53880;DHT22;39791;53.184;5.486;2023-09-19T08:50:28;22.00;1.00
53880;DHT22;39791;53.184;5.486;2023-09-19T08:52:56;22.20;1.00
53880;DHT22;39791;53.184;5.486;2023-09-19T08:55:29;22.60;1.00
53880;DHT22;39791;53.184;5.486;2023-09-19T08:58:04;22.80;1.00
53880;DHT22;39791;53.184;5.486;2023-09-19T09:00:32;23.00;1.00
53880;DHT22;39791;53.184;5.486;2023-09-19T09:03:01;22.80;99.90
53880;DHT22;39791;53.184;5.486;2023-09-19T09:05:28;22.90;1.00
53880;DHT22;39791;53.184;5.486;2023-09-19T09:07:55;22.90;1.00
53880;DHT22;39791;53.184;5.486;2023-09-19T09:10:23;23.20;1.00
53880;DHT22;39791;53.184;5.486;2023-09-19T09:12:51;23.30;1.00
53880;DHT22;39791;53.184;5.486;2023-09-19T09:15:18;23.20;99.90
53880;DHT22;39791;53.184;5.486;2023-09-19T09:17:47;23.10;99.90
53880;DHT22;39791;53.184;5.486;2023-09-19T09:20:14;23.10;99.90
53880;DHT22;39791;53.184;5.486;2023-09-19T09:22:53;23.10;99.90
53880;DHT22;39791;53.184;5.486;2023-09-19T09:25:20;23.20;99.90
53880;DHT22;39791;53.184;5.486;2023-09-19T09:28:01;23.20;99.90
53880;DHT22;39791;53.184;5.486;2023-09-19T09:30:35;23.20;1.00
53880;DHT22;39791;53.184;5.486;2023-09-19T09:33:11;23.10;1.00
53880;DHT22;39791;53.184;5.486;2023-09-19T09:35:47;23.00;1.00
53880;DHT22;39791;53.184;5.486;2023-09-19T09:38:20;23.00;1.00
53880;DHT22;39791;53.184;5.486;2023-09-19T09:40:48;22.90;1.00
53880;DHT22;39791;53.184;5.486;2023-09-19T09:43:36;22.90;1.00
53880;DHT22;39791;53.184;5.486;2023-09-19T09:46:12;22.70;1.00
53880;DHT22;39791;53.184;5.486;2023-09-19T09:48:55;22.70;1.00
53880;DHT22;39791;53.184;5.486;2023-09-19T09:51:51;22.60;1.00
53880;DHT22;39791;53.184;5.486;2023-09-19T09:54:26;22.60;1.00
53880;DHT22;39791;53.184;5.486;2023-09-19T09:57:07;22.60;1.00
53880;DHT22;39791;53.184;5.486;2023-09-19T10:02:20;22.70;9.20
53880;DHT22;39791;53.184;5.486;2023-09-19T10:04:51;22.70;1.00
53880;DHT22;39791;53.184;5.486;2023-09-19T10:07:29;22.70;1.00
53880;DHT22;39791;53.184;5.486;2023-09-19T10:09:58;22.80;1.50
53880;DHT22;39791;53.184;5.486;2023-09-19T10:12:38;22.80;1.00
53880;DHT22;39791;53.184;5.486;2023-09-19T10:15:05;22.80;1.00
53880;DHT22;39791;53.184;5.486;2023-09-19T10:17:34;22.90;1.00
53880;DHT22;39791;53.184;5.486;2023-09-19T10:20:02;22.90;9.80
53880;DHT22;39791;53.184;5.486;2023-09-19T10:22:35;22.80;61.00
53880;DHT22;39791;53.184;5.486;2023-09-19T10:25:04;22.60;19.40
53880;DHT22;39791;53.184;5.486;2023-09-19T10:27:32;22.70;23.90
53880;DHT22;39791;53.184;5.486;2023-09-19T10:30:05;22.60;35.30
53880;DHT22;39791;53.184;5.486;2023-09-19T10:32:34;22.70;99.90
53880;DHT22;39791;53.184;5.486;2023-09-19T10:35:01;22.70;99.90
53880;DHT22;39791;53.184;5.486;2023-09-19T10:37:27;23.10;99.90
53880;DHT22;39791;53.184;5.486;2023-09-19T10:39:56;22.70;99.90
53880;DHT22;39791;53.184;5.486;2023-09-19T10:42:23;22.50;99.90
53880;DHT22;39791;53.184;5.486;2023-09-19T10:44:53;22.50;99.90
53880;DHT22;39791;53.184;5.486;2023-09-19T10:47:20;22.40;1.00
53880;DHT22;39791;53.184;5.486;2023-09-19T10:49:49;22.40;99.90
53880;DHT22;39791;53.184;5.486;2023-09-19T10:52:18;22.40;1.00
53880;DHT22;39791;53.184;5.486;2023-09-19T10:54:48;22.50;99.90
53880;DHT22;39791;53.184;5.486;2023-09-19T10:57:24;22.50;99.90
53880;DHT22;39791;53.184;5.486;2023-09-19T11:00:22;22.60;99.90
53880;DHT22;39791;53.184;5.486;2023-09-19T11:05:35;22.40;1.00
53880;DHT22;39791;53.184;5.486;2023-09-19T11:08:07;22.10;69.50
53880;DHT22;39791;53.184;5.486;2023-09-19T11:10:46;22.00;99.90
53880;DHT22;39791;53.184;5.486;2023-09-19T11:13:29;21.90;99.90
53880;DHT22;39791;53.184;5.486;2023-09-19T11:26:47;21.60;99.90
53880;DHT22;39791;53.184;5.486;2023-09-19T11:29:29;21.60;99.90
53880;DHT22;39791;53.184;5.486;2023-09-19T11:31:57;21.60;1.00
53880;DHT22;39791;53.184;5.486;2023-09-19T11:42:44;21.20;99.90
53880;DHT22;39791;53.184;5.486;2023-09-19T11:48:23;20.90;99.90
53880;DHT22;39791;53.184;5.486;2023-09-19T11:50:50;20.90;99.90
53880;DHT22;39791;53.184;5.486;2023-09-19T11:53:17;21.00;99.90
53880;DHT22;39791;53.184;5.486;2023-09-19T11:55:42;20.90;99.90
53880;DHT22;39791;53.184;5.486;2023-09-19T11:58:08;21.00;99.90
53880;DHT22;39791;53.184;5.486;2023-09-19T12:00:35;21.20;99.90
53880;DHT22;39791;53.184;5.486;2023-09-19T12:03:08;21.20;99.90
53880;DHT22;39791;53.184;5.486;2023-09-19T12:05:37;21.20;99.90
53880;DHT22;39791;53.184;5.486;2023-09-19T12:08:04;21.50;99.90
53880;DHT22;39791;53.184;5.486;2023-09-19T12:10:33;21.60;99.90
53880;DHT22;39791;53.184;5.486;2023-09-19T12:12:59;21.60;99.90
53880;DHT22;39791;53.184;5.486;2023-09-19T12:15:28;21.30;99.90
53880;DHT22;39791;53.184;5.486;2023-09-19T12:18:00;21.50;99.90
53880;DHT22;39791;53.184;5.486;2023-09-19T12:20:41;21.70;99.90
53880;DHT22;39791;53.184;5.486;2023-09-19T12:23:13;21.60;99.90
53880;DHT22;39791;53.184;5.486;2023-09-19T12:25:43;21.50;99.90
53880;DHT22;39791;53.184;5.486;2023-09-19T12:28:13;21.80;99.90
53880;DHT22;39791;53.184;5.486;2023-09-19T12:30:39;21.70;99.90
53880;DHT22;39791;53.184;5.486;2023-09-19T12:33:16;21.70;99.90
53880;DHT22;39791;53.184;5.486;2023-09-19T12:35:44;21.70;99.90
53880;DHT22;39791;53.184;5.486;2023-09-19T12:38:10;21.60;99.90
53880;DHT22;39791;53.184;5.486;2023-09-19T12:40:38;21.50;99.90
53880;DHT22;39791;53.184;5.486;2023-09-19T12:43:08;21.20;99.90
53880;DHT22;39791;53.184;5.486;2023-09-19T12:45:35;21.00;99.90
53880;DHT22;39791;53.184;5.486;2023-09-19T12:48:22;21.10;99.90
53880;DHT22;39791;53.184;5.486;2023-09-19T12:53:43;21.30;99.90
53880;DHT22;39791;53.184;5.486;2023-09-19T12:56:10;21.30;99.90
53880;DHT22;39791;53.184;5.486;2023-09-19T13:01:20;21.70;99.90
53880;DHT22;39791;53.184;5.486;2023-09-19T13:04:17;21.60;99.90
53880;DHT22;39791;53.184;5.486;2023-09-19T13:06:52;21.80;99.90
53880;DHT22;39791;53.184;5.486;2023-09-19T13:09:20;21.80;99.90
53880;DHT22;39791;53.184;5.486;2023-09-19T13:11:46;21.80;99.90
53880;DHT22;39791;53.184;5.486;2023-09-19T13:17:08;21.50;99.90
53880;DHT22;39791;53.184;5.486;2023-09-19T13:19:49;21.90;99.90
53880;DHT22;39791;53.184;5.486;2023-09-19T13:25:16;21.60;99.90
53880;DHT22;39791;53.184;5.486;2023-09-19T13:27:50;21.50;99.90
53880;DHT22;39791;53.184;5.486;2023-09-19T13:30:17;21.80;99.90
53880;DHT22;39791;53.184;5.486;2023-09-19T13:32:44;21.70;99.90
53880;DHT22;39791;53.184;5.486;2023-09-19T13:35:10;21.60;99.90
53880;DHT22;39791;53.184;5.486;2023-09-19T13:37:37;21.70;99.90
53880;DHT22;39791;53.184;5.486;2023-09-19T13:40:10;21.80;99.90
53880;DHT22;39791;53.184;5.486;2023-09-19T13:42:36;21.60;99.90
53880;DHT22;39791;53.184;5.486;2023-09-19T13:45:03;22.20;99.90
53880;DHT22;39791;53.184;5.486;2023-09-19T13:47:30;21.90;99.90
53880;DHT22;39791;53.184;5.486;2023-09-19T13:49:55;22.10;99.90
53880;DHT22;39791;53.184;5.486;2023-09-19T13:52:21;21.90;99.90
53880;DHT22;39791;53.184;5.486;2023-09-19T13:54:49;22.20;99.90
53880;DHT22;39791;53.184;5.486;2023-09-19T13:57:16;21.80;99.90
53880;DHT22;39791;53.184;5.486;2023-09-19T13:59:42;22.40;99.90
53880;DHT22;39791;53.184;5.486;2023-09-19T14:02:07;22.00;99.90
53880;DHT22;39791;53.184;5.486;2023-09-19T14:04:33;22.00;99.90
53880;DHT22;39791;53.184;5.486;2023-09-19T14:07:02;22.30;99.90
53880;DHT22;39791;53.184;5.486;2023-09-19T14:09:28;22.30;99.90
53880;DHT22;39791;53.184;5.486;2023-09-19T14:11:54;22.40;99.90
53880;DHT22;39791;53.184;5.486;2023-09-19T14:14:20;22.30;99.90
53880;DHT22;39791;53.184;5.486;2023-09-19T14:16:49;22.50;99.90
53880;DHT22;39791;53.184;5.486;2023-09-19T14:19:15;22.50;99.90
53880;DHT22;39791;53.184;5.486;2023-09-19T14:21:42;22.60;99.90
53880;DHT22;39791;53.184;5.486;2023-09-19T14:24:08;22.40;99.90
53880;DHT22;39791;53.184;5.486;2023-09-19T14:26:40;22.60;99.90
53880;DHT22;39791;53.184;5.486;2023-09-19T14:29:06;22.50;99.90
53880;DHT22;39791;53.184;5.486;2023-09-19T14:31:33;22.60;99.90
53880;DHT22;39791;53.184;5.486;2023-09-19T14:33:59;22.40;99.90
53880;DHT22;39791;53.184;5.486;2023-09-19T14:36:25;22.50;99.90
53880;DHT22;39791;53.184;5.486;2023-09-19T14:38:55;22.70;99.90
53880;DHT22;39791;53.184;5.486;2023-09-19T14:41:22;22.70;99.90
53880;DHT22;39791;53.184;5.486;2023-09-19T14:43:48;22.60;99.90
53880;DHT22;39791;53.184;5.486;2023-09-19T14:46:14;22.80;99.90
53880;DHT22;39791;53.184;5.486;2023-09-19T14:48:40;22.80;99.90
53880;DHT22;39791;53.184;5.486;2023-09-19T14:51:07;22.70;99.90
53880;DHT22;39791;53.184;5.486;2023-09-19T14:53:34;22.70;99.90
53880;DHT22;39791;53.184;5.486;2023-09-19T14:56:01;22.80;99.90
53880;DHT22;39791;53.184;5.486;2023-09-19T14:58:29;22.80;99.90
53880;DHT22;39791;53.184;5.486;2023-09-19T15:01:05;23.00;99.90
53880;DHT22;39791;53.184;5.486;2023-09-19T15:03:33;22.70;99.90
53880;DHT22;39791;53.184;5.486;2023-09-19T15:06:02;22.80;99.90
53880;DHT22;39791;53.184;5.486;2023-09-19T15:08:30;22.80;99.90
53880;DHT22;39791;53.184;5.486;2023-09-19T15:10:56;22.70;99.90
53880;DHT22;39791;53.184;5.486;2023-09-19T15:13:24;22.60;99.90
53880;DHT22;39791;53.184;5.486;2023-09-19T15:16:01;22.70;99.90
53880;DHT22;39791;53.184;5.486;2023-09-19T15:18:28;22.50;99.90
53880;DHT22;39791;53.184;5.486;2023-09-19T15:20:55;22.40;99.90
53880;DHT22;39791;53.184;5.486;2023-09-19T15:23:21;22.50;99.90
53880;DHT22;39791;53.184;5.486;2023-09-19T15:25:50;22.20;99.90
53880;DHT22;39791;53.184;5.486;2023-09-19T15:28:15;22.30;99.90
53880;DHT22;39791;53.184;5.486;2023-09-19T15:30:41;22.10;99.90
53880;DHT22;39791;53.184;5.486;2023-09-19T15:33:06;22.30;99.90
53880;DHT22;39791;53.184;5.486;2023-09-19T15:35:33;22.30;99.90
53880;DHT22;39791;53.184;5.486;2023-09-19T15:37:58;22.20;99.90
53880;DHT22;39791;53.184;5.486;2023-09-19T15:40:26;21.80;99.90
53880;DHT22;39791;53.184;5.486;2023-09-19T15:42:54;22.20;99.90
53880;DHT22;39791;53.184;5.486;2023-09-19T15:45:20;22.20;99.90
53880;DHT22;39791;53.184;5.486;2023-09-19T15:47:45;22.30;99.90
53880;DHT22;39791;53.184;5.486;2023-09-19T15:50:11;22.10;99.90
53880;DHT22;39791;53.184;5.486;2023-09-19T15:52:44;21.80;99.90
53880;DHT22;39791;53.184;5.486;2023-09-19T15:55:09;22.20;99.90
53880;DHT22;39791;53.184;5.486;2023-09-19T15:57:38;21.70;99.90
53880;DHT22;39791;53.184;5.486;2023-09-19T16:00:06;22.10;99.90
53880;DHT22;39791;53.184;5.486;2023-09-19T16:02:38;21.70;99.90
53880;DHT22;39791;53.184;5.486;2023-09-19T16:05:03;22.00;99.90
53880;DHT22;39791;53.184;5.486;2023-09-19T16:07:31;22.10;99.90
53880;DHT22;39791;53.184;5.486;2023-09-19T16:09:57;22.10;99.90
53880;DHT22;39791;53.184;5.486;2023-09-19T16:12:24;22.10;99.90
53880;DHT22;39791;53.184;5.486;2023-09-19T16:14:50;21.90;99.90
53880;DHT22;39791;53.184;5.486;2023-09-19T16:17:15;22.10;99.90
53880;DHT22;39791;53.184;5.486;2023-09-19T16:19:41;21.50;99.90
53880;DHT22;39791;53.184;5.486;2023-09-19T16:22:09;21.60;99.90
53880;DHT22;39791;53.184;5.486;2023-09-19T16:24:34;21.60;99.90
53880;DHT22;39791;53.184;5.486;2023-09-19T16:27:00;22.00;99.90
53880;DHT22;39791;53.184;5.486;2023-09-19T16:29:26;21.70;99.90
53880;DHT22;39791;53.184;5.486;2023-09-19T16:31:52;22.10;99.90
53880;DHT22;39791;53.184;5.486;2023-09-19T16:34:18;21.70;99.90
53880;DHT22;39791;53.184;5.486;2023-09-19T16:36:43;21.50;99.90
53880;DHT22;39791;53.184;5.486;2023-09-19T16:39:09;21.50;99.90
53880;DHT22;39791;53.184;5.486;2023-09-19T16:41:36;21.80;99.90
53880;DHT22;39791;53.184;5.486;2023-09-19T16:44:02;21.60;99.90